sensor_id;sensor_type;location;lat;lon;timestamp;P1;durP1;ratioP1;P2;durP2;ratioP2
5149;SDS011;2593;52.466;13.436;2023-03-20T00:00:25;12.70;;;5.30;;
5149;SDS011;2593;52.466;13.436;2023-03-20T00:02:57;6.20;;;4.87;;
5149;SDS011;2593;52.466;13.436;2023-03-20T00:05:23;10.30;;;4.70;;
5149;SDS011;2593;52.466;13.436;2023-03-20T00:07:50;11.53;;;6.00;;
5149;SDS011;2593;52.466;13.436;2023-03-20T00:10:17;5.00;;;4.20;;
5149;SDS011;2593;52.466;13.436;2023-03-20T00:12:44;8.47;;;5.17;;
5149;SDS011;2593;52.466;13.436;2023-03-20T00:15:22;5.43;;;4.93;;
5149;SDS011;2593;52.466;13.436;2023-03-20T00:17:52;5.83;;;5.23;;
5149;SDS011;2593;52.466;13.436;2023-03-20T00:20:19;10.43;;;6.20;;
5149;SDS011;2593;52.466;13.436;2023-03-20T00:22:45;6.90;;;5.33;;
5149;SDS011;2593;52.466;13.436;2023-03-20T00:25:15;12.70;;;5.27;;
5149;SDS011;2593;52.466;13.436;2023-03-20T00:27:43;16.43;;;5.60;;
5149;SDS011;2593;52.466;13.436;2023-03-20T00:30:15;15.90;;;6.53;;
5149;SDS011;2593;52.466;13.436;2023-03-20T00:32:46;7.90;;;5.03;;
5149;SDS011;2593;52.466;13.436;2023-03-20T00:35:15;7.83;;;5.23;;
5149;SDS011;2593;52.466;13.436;2023-03-20T00:38:02;12.47;;;6.20;;
5149;SDS011;2593;52.466;13.436;2023-03-20T00:40:28;11.90;;;6.70;;
5149;SDS011;2593;52.466;13.436;2023-03-20T00:42:59;8.30;;;6.37;;
5149;SDS011;2593;52.466;13.436;2023-03-20T00:45:27;11.07;;;5.70;;
5149;SDS011;2593;52.466;13.436;2023-03-20T00:47:54;11.43;;;6.60;;
5149;SDS011;2593;52.466;13.436;2023-03-20T00:50:23;15.20;;;6.20;;
5149;SDS011;2593;52.466;13.436;2023-03-20T00:52:51;11.40;;;5.03;;
5149;SDS011;2593;52.466;13.436;2023-03-20T00:55:18;10.40;;;6.47;;
5149;SDS011;2593;52.466;13.436;2023-03-20T00:57:47;8.70;;;5.93;;
5149;SDS011;2593;52.466;13.436;2023-03-20T01:02:56;12.40;;;6.67;;
5149;SDS011;2593;52.466;13.436;2023-03-20T01:05:23;12.50;;;6.03;;
5149;SDS011;2593;52.466;13.436;2023-03-20T01:07:49;8.67;;;5.30;;
5149;SDS011;2593;52.466;13.436;2023-03-20T01:10:15;9.57;;;5.60;;
5149;SDS011;2593;52.466;13.436;2023-03-20T01:12:42;10.23;;;6.50;;
5149;SDS011;2593;52.466;13.436;2023-03-20T01:15:30;9.43;;;5.20;;
5149;SDS011;2593;52.466;13.436;2023-03-20T01:17:56;7.93;;;5.90;;
5149;SDS011;2593;52.466;13.436;2023-03-20T01:20:23;10.97;;;6.53;;
5149;SDS011;2593;52.466;13.436;2023-03-20T01:22:51;13.20;;;6.87;;
5149;SDS011;2593;52.466;13.436;2023-03-20T01:25:18;8.70;;;5.90;;
5149;SDS011;2593;52.466;13.436;2023-03-20T01:27:45;6.30;;;5.50;;
5149;SDS011;2593;52.466;13.436;2023-03-20T01:30:19;17.00;;;5.83;;
5149;SDS011;2593;52.466;13.436;2023-03-20T01:32:46;9.10;;;5.60;;
5149;SDS011;2593;52.466;13.436;2023-03-20T01:35:13;8.10;;;5.60;;
5149;SDS011;2593;52.466;13.436;2023-03-20T01:37:44;12.93;;;6.07;;
5149;SDS011;2593;52.466;13.436;2023-03-20T01:40:13;8.17;;;5.53;;
5149;SDS011;2593;52.466;13.436;2023-03-20T01:42:54;10.93;;;6.80;;
5149;SDS011;2593;52.466;13.436;2023-03-20T01:45:21;14.03;;;6.30;;
5149;SDS011;2593;52.466;13.436;2023-03-20T01:47:49;9.40;;;6.43;;
5149;SDS011;2593;52.466;13.436;2023-03-20T01:53:08;8.63;;;6.63;;
5149;SDS011;2593;52.466;13.436;2023-03-20T01:55:37;8.33;;;6.43;;
5149;SDS011;2593;52.466;13.436;2023-03-20T01:58:06;9.73;;;6.23;;
5149;SDS011;2593;52.466;13.436;2023-03-20T02:00:45;17.17;;;7.83;;
5149;SDS011;2593;52.466;13.436;2023-03-20T02:03:13;17.70;;;7.00;;
5149;SDS011;2593;52.466;13.436;2023-03-20T02:05:41;14.07;;;7.47;;
5149;SDS011;2593;52.466;13.436;2023-03-20T02:08:16;13.53;;;7.13;;
5149;SDS011;2593;52.466;13.436;2023-03-20T02:10:46;13.90;;;8.13;;
5149;SDS011;2593;52.466;13.436;2023-03-20T02:13:14;12.60;;;6.40;;
5149;SDS011;2593;52.466;13.436;2023-03-20T02:18:37;11.10;;;7.30;;
5149;SDS011;2593;52.466;13.436;2023-03-20T02:37:51;13.20;;;6.60;;
5149;SDS011;2593;52.466;13.436;2023-03-20T02:45:51;9.17;;;7.50;;
5149;SDS011;2593;52.466;13.436;2023-03-20T02:48:47;9.30;;;6.83;;
5149;SDS011;2593;52.466;13.436;2023-03-20T02:56:33;10.00;;;6.43;;
5149;SDS011;2593;52.466;13.436;2023-03-20T02:59:15;8.77;;;6.63;;
5149;SDS011;2593;52.466;13.436;2023-03-20T03:01:50;11.00;;;7.47;;
5149;SDS011;2593;52.466;13.436;2023-03-20T03:04:25;14.50;;;6.50;;
5149;SDS011;2593;52.466;13.436;2023-03-20T03:06:54;6.97;;;5.90;;
5149;SDS011;2593;52.466;13.436;2023-03-20T03:09:33;17.80;;;6.77;;
5149;SDS011;2593;52.466;13.436;2023-03-20T03:12:18;10.23;;;6.70;;
5149;SDS011;2593;52.466;13.436;2023-03-20T03:14:47;10.50;;;7.23;;
5149;SDS011;2593;52.466;13.436;2023-03-20T03:17:19;10.27;;;6.77;;
5149;SDS011;2593;52.466;13.436;2023-03-20T03:19:49;9.67;;;6.90;;
5149;SDS011;2593;52.466;13.436;2023-03-20T03:22:17;11.23;;;7.03;;
5149;SDS011;2593;52.466;13.436;2023-03-20T03:24:48;11.93;;;6.47;;
5149;SDS011;2593;52.466;13.436;2023-03-20T03:29:54;13.30;;;7.43;;
5149;SDS011;2593;52.466;13.436;2023-03-20T03:32:26;7.90;;;6.50;;
5149;SDS011;2593;52.466;13.436;2023-03-20T03:35:01;9.03;;;6.43;;
5149;SDS011;2593;52.466;13.436;2023-03-20T03:42:30;8.30;;;5.83;;
5149;SDS011;2593;52.466;13.436;2023-03-20T03:45:37;10.67;;;6.97;;
5149;SDS011;2593;52.466;13.436;2023-03-20T03:48:00;8.17;;;7.13;;
5149;SDS011;2593;52.466;13.436;2023-03-20T03:50:37;14.13;;;6.20;;
5149;SDS011;2593;52.466;13.436;2023-03-20T03:53:12;9.20;;;5.67;;
5149;SDS011;2593;52.466;13.436;2023-03-20T03:55:43;8.43;;;6.07;;
5149;SDS011;2593;52.466;13.436;2023-03-20T04:01:04;8.43;;;5.90;;
5149;SDS011;2593;52.466;13.436;2023-03-20T04:03:34;9.10;;;6.90;;
5149;SDS011;2593;52.466;13.436;2023-03-20T04:06:03;7.60;;;6.90;;
5149;SDS011;2593;52.466;13.436;2023-03-20T04:08:30;13.27;;;7.63;;
5149;SDS011;2593;52.466;13.436;2023-03-20T04:10:58;13.20;;;7.90;;
5149;SDS011;2593;52.466;13.436;2023-03-20T04:13:24;15.03;;;8.03;;
5149;SDS011;2593;52.466;13.436;2023-03-20T04:15:50;10.03;;;7.77;;
5149;SDS011;2593;52.466;13.436;2023-03-20T04:18:16;14.10;;;6.80;;
5149;SDS011;2593;52.466;13.436;2023-03-20T04:20:43;10.00;;;8.00;;
5149;SDS011;2593;52.466;13.436;2023-03-20T04:23:10;13.00;;;7.30;;
5149;SDS011;2593;52.466;13.436;2023-03-20T04:25:35;16.53;;;7.30;;
5149;SDS011;2593;52.466;13.436;2023-03-20T04:28:01;12.87;;;8.33;;
5149;SDS011;2593;52.466;13.436;2023-03-20T04:30:27;14.17;;;7.63;;
5149;SDS011;2593;52.466;13.436;2023-03-20T04:32:53;8.50;;;7.37;;
5149;SDS011;2593;52.466;13.436;2023-03-20T04:35:19;12.70;;;8.50;;
5149;SDS011;2593;52.466;13.436;2023-03-20T04:37:44;19.80;;;7.43;;
5149;SDS011;2593;52.466;13.436;2023-03-20T04:40:10;12.93;;;7.90;;
5149;SDS011;2593;52.466;13.436;2023-03-20T04:42:37;11.30;;;8.47;;
5149;SDS011;2593;52.466;13.436;2023-03-20T04:45:03;11.23;;;8.40;;
5149;SDS011;2593;52.466;13.436;2023-03-20T04:47:29;11.17;;;7.87;;
5149;SDS011;2593;52.466;13.436;2023-03-20T04:49:55;9.33;;;7.90;;
5149;SDS011;2593;52.466;13.436;2023-03-20T04:52:21;9.13;;;8.13;;
5149;SDS011;2593;52.466;13.436;2023-03-20T04:54:46;11.50;;;8.67;;
5149;SDS011;2593;52.466;13.436;2023-03-20T04:57:12;9.90;;;7.90;;
5149;SDS011;2593;52.466;13.436;2023-03-20T04:59:37;14.23;;;8.33;;
5149;SDS011;2593;52.466;13.436;2023-03-20T05:02:03;15.57;;;10.00;;
5149;SDS011;2593;52.466;13.436;2023-03-20T05:04:29;12.87;;;8.73;;
5149;SDS011;2593;52.466;13.436;2023-03-20T05:06:54;21.60;;;8.10;;
5149;SDS011;2593;52.466;13.436;2023-03-20T05:09:20;11.03;;;7.77;;
5149;SDS011;2593;52.466;13.436;2023-03-20T05:11:46;16.53;;;9.77;;
5149;SDS011;2593;52.466;13.436;2023-03-20T05:14:11;10.83;;;9.17;;
5149;SDS011;2593;52.466;13.436;2023-03-20T05:16:37;9.80;;;8.20;;
5149;SDS011;2593;52.466;13.436;2023-03-20T05:19:03;12.37;;;9.70;;
5149;SDS011;2593;52.466;13.436;2023-03-20T05:21:29;14.53;;;10.90;;
5149;SDS011;2593;52.466;13.436;2023-03-20T05:23:54;15.90;;;10.10;;
5149;SDS011;2593;52.466;13.436;2023-03-20T05:26:20;20.93;;;10.70;;
5149;SDS011;2593;52.466;13.436;2023-03-20T05:28:45;12.87;;;9.73;;
5149;SDS011;2593;52.466;13.436;2023-03-20T05:31:11;13.53;;;9.93;;
5149;SDS011;2593;52.466;13.436;2023-03-20T05:33:37;19.17;;;9.93;;
5149;SDS011;2593;52.466;13.436;2023-03-20T05:36:03;13.03;;;10.90;;
5149;SDS011;2593;52.466;13.436;2023-03-20T05:38:29;17.00;;;11.20;;
5149;SDS011;2593;52.466;13.436;2023-03-20T05:40:56;18.33;;;10.77;;
5149;SDS011;2593;52.466;13.436;2023-03-20T05:43:22;23.90;;;11.23;;
5149;SDS011;2593;52.466;13.436;2023-03-20T05:45:48;29.23;;;11.37;;
5149;SDS011;2593;52.466;13.436;2023-03-20T05:48:14;16.83;;;11.50;;
5149;SDS011;2593;52.466;13.436;2023-03-20T05:50:40;17.70;;;11.77;;
5149;SDS011;2593;52.466;13.436;2023-03-20T05:53:05;14.87;;;12.00;;
5149;SDS011;2593;52.466;13.436;2023-03-20T05:55:31;19.80;;;12.67;;
5149;SDS011;2593;52.466;13.436;2023-03-20T05:57:57;20.17;;;12.33;;
5149;SDS011;2593;52.466;13.436;2023-03-20T06:00:22;17.77;;;11.93;;
5149;SDS011;2593;52.466;13.436;2023-03-20T06:02:48;18.00;;;12.67;;
5149;SDS011;2593;52.466;13.436;2023-03-20T06:05:14;23.53;;;14.33;;
5149;SDS011;2593;52.466;13.436;2023-03-20T06:07:40;18.27;;;12.53;;
5149;SDS011;2593;52.466;13.436;2023-03-20T06:10:05;19.97;;;13.57;;
5149;SDS011;2593;52.466;13.436;2023-03-20T06:12:32;21.67;;;14.37;;
5149;SDS011;2593;52.466;13.436;2023-03-20T06:14:57;21.37;;;14.07;;
5149;SDS011;2593;52.466;13.436;2023-03-20T06:17:23;19.63;;;13.90;;
5149;SDS011;2593;52.466;13.436;2023-03-20T06:19:49;29.10;;;16.27;;
5149;SDS011;2593;52.466;13.436;2023-03-20T06:22:14;27.13;;;15.43;;
5149;SDS011;2593;52.466;13.436;2023-03-20T06:24:40;27.80;;;16.27;;
5149;SDS011;2593;52.466;13.436;2023-03-20T06:27:07;24.70;;;16.80;;
5149;SDS011;2593;52.466;13.436;2023-03-20T06:29:32;24.83;;;15.90;;
5149;SDS011;2593;52.466;13.436;2023-03-20T06:31:58;26.67;;;17.50;;
5149;SDS011;2593;52.466;13.436;2023-03-20T06:34:24;36.43;;;17.70;;
5149;SDS011;2593;52.466;13.436;2023-03-20T06:36:50;32.53;;;17.67;;
5149;SDS011;2593;52.466;13.436;2023-03-20T06:39:16;30.10;;;19.77;;
5149;SDS011;2593;52.466;13.436;2023-03-20T06:41:42;36.43;;;20.87;;
5149;SDS011;2593;52.466;13.436;2023-03-20T06:44:07;43.27;;;25.30;;
5149;SDS011;2593;52.466;13.436;2023-03-20T06:46:33;55.30;;;23.70;;
5149;SDS011;2593;52.466;13.436;2023-03-20T06:48:58;36.53;;;21.93;;
5149;SDS011;2593;52.466;13.436;2023-03-20T06:51:25;48.33;;;27.17;;
5149;SDS011;2593;52.466;13.436;2023-03-20T06:53:50;52.03;;;27.90;;
5149;SDS011;2593;52.466;13.436;2023-03-20T06:56:16;58.67;;;31.70;;
5149;SDS011;2593;52.466;13.436;2023-03-20T06:58:42;55.07;;;31.07;;
5149;SDS011;2593;52.466;13.436;2023-03-20T07:01:11;59.43;;;33.23;;
5149;SDS011;2593;52.466;13.436;2023-03-20T07:03:39;57.23;;;31.97;;
5149;SDS011;2593;52.466;13.436;2023-03-20T07:06:05;56.80;;;30.80;;
5149;SDS011;2593;52.466;13.436;2023-03-20T07:08:32;61.10;;;31.17;;
5149;SDS011;2593;52.466;13.436;2023-03-20T07:10:58;49.97;;;28.87;;
5149;SDS011;2593;52.466;13.436;2023-03-20T07:13:25;57.17;;;31.80;;
5149;SDS011;2593;52.466;13.436;2023-03-20T07:15:52;54.03;;;27.50;;
5149;SDS011;2593;52.466;13.436;2023-03-20T07:18:18;48.27;;;26.70;;
5149;SDS011;2593;52.466;13.436;2023-03-20T07:20:44;44.10;;;26.83;;
5149;SDS011;2593;52.466;13.436;2023-03-20T07:23:09;46.20;;;26.03;;
5149;SDS011;2593;52.466;13.436;2023-03-20T07:25:35;44.43;;;25.03;;
5149;SDS011;2593;52.466;13.436;2023-03-20T07:28:01;40.33;;;23.37;;
5149;SDS011;2593;52.466;13.436;2023-03-20T07:30:27;45.07;;;24.80;;
5149;SDS011;2593;52.466;13.436;2023-03-20T07:32:52;49.07;;;27.60;;
5149;SDS011;2593;52.466;13.436;2023-03-20T07:35:18;53.70;;;26.27;;
5149;SDS011;2593;52.466;13.436;2023-03-20T07:37:44;47.80;;;26.10;;
5149;SDS011;2593;52.466;13.436;2023-03-20T07:40:09;47.73;;;28.60;;
5149;SDS011;2593;52.466;13.436;2023-03-20T07:42:36;53.60;;;27.90;;
5149;SDS011;2593;52.466;13.436;2023-03-20T07:45:01;45.20;;;25.67;;
5149;SDS011;2593;52.466;13.436;2023-03-20T07:47:27;48.27;;;24.27;;
5149;SDS011;2593;52.466;13.436;2023-03-20T07:49:53;43.33;;;23.87;;
5149;SDS011;2593;52.466;13.436;2023-03-20T07:52:18;45.40;;;24.17;;
5149;SDS011;2593;52.466;13.436;2023-03-20T07:54:44;50.03;;;23.37;;
5149;SDS011;2593;52.466;13.436;2023-03-20T07:57:10;56.47;;;24.70;;
5149;SDS011;2593;52.466;13.436;2023-03-20T07:59:36;56.43;;;24.73;;
5149;SDS011;2593;52.466;13.436;2023-03-20T08:02:01;50.37;;;23.33;;
5149;SDS011;2593;52.466;13.436;2023-03-20T08:04:27;49.33;;;23.53;;
5149;SDS011;2593;52.466;13.436;2023-03-20T08:06:53;54.97;;;25.20;;
5149;SDS011;2593;52.466;13.436;2023-03-20T08:09:18;52.57;;;28.27;;
5149;SDS011;2593;52.466;13.436;2023-03-20T08:11:44;62.73;;;30.00;;
5149;SDS011;2593;52.466;13.436;2023-03-20T08:14:10;56.97;;;28.13;;
5149;SDS011;2593;52.466;13.436;2023-03-20T08:16:36;55.47;;;28.67;;
5149;SDS011;2593;52.466;13.436;2023-03-20T08:19:02;58.40;;;28.13;;
5149;SDS011;2593;52.466;13.436;2023-03-20T08:21:29;60.23;;;31.17;;
5149;SDS011;2593;52.466;13.436;2023-03-20T08:23:55;55.47;;;28.27;;
5149;SDS011;2593;52.466;13.436;2023-03-20T08:26:21;53.93;;;25.90;;
5149;SDS011;2593;52.466;13.436;2023-03-20T08:28:48;44.77;;;23.03;;
5149;SDS011;2593;52.466;13.436;2023-03-20T08:31:13;53.83;;;24.37;;
5149;SDS011;2593;52.466;13.436;2023-03-20T08:33:40;48.87;;;21.33;;
5149;SDS011;2593;52.466;13.436;2023-03-20T08:36:06;46.03;;;20.87;;
5149;SDS011;2593;52.466;13.436;2023-03-20T08:38:32;43.57;;;21.50;;
5149;SDS011;2593;52.466;13.436;2023-03-20T08:40:57;38.43;;;20.13;;
5149;SDS011;2593;52.466;13.436;2023-03-20T08:43:23;42.60;;;20.60;;
5149;SDS011;2593;52.466;13.436;2023-03-20T08:45:49;51.10;;;20.30;;
5149;SDS011;2593;52.466;13.436;2023-03-20T08:48:14;42.70;;;19.20;;
5149;SDS011;2593;52.466;13.436;2023-03-20T08:50:40;38.33;;;19.00;;
5149;SDS011;2593;52.466;13.436;2023-03-20T08:53:06;44.73;;;20.23;;
5149;SDS011;2593;52.466;13.436;2023-03-20T08:55:32;43.17;;;19.40;;
5149;SDS011;2593;52.466;13.436;2023-03-20T08:57:57;43.73;;;16.90;;
5149;SDS011;2593;52.466;13.436;2023-03-20T09:00:23;35.70;;;18.00;;
5149;SDS011;2593;52.466;13.436;2023-03-20T09:02:49;31.50;;;15.57;;
5149;SDS011;2593;52.466;13.436;2023-03-20T09:05:15;35.63;;;15.70;;
5149;SDS011;2593;52.466;13.436;2023-03-20T09:07:42;33.30;;;15.20;;
5149;SDS011;2593;52.466;13.436;2023-03-20T09:10:08;28.87;;;15.97;;
5149;SDS011;2593;52.466;13.436;2023-03-20T09:12:35;31.80;;;16.37;;
5149;SDS011;2593;52.466;13.436;2023-03-20T09:15:01;24.23;;;14.73;;
5149;SDS011;2593;52.466;13.436;2023-03-20T09:17:27;34.50;;;16.90;;
5149;SDS011;2593;52.466;13.436;2023-03-20T09:19:52;38.20;;;16.80;;
5149;SDS011;2593;52.466;13.436;2023-03-20T09:22:18;29.97;;;15.03;;
5149;SDS011;2593;52.466;13.436;2023-03-20T09:24:44;31.97;;;17.00;;
5149;SDS011;2593;52.466;13.436;2023-03-20T09:27:11;45.87;;;15.93;;
5149;SDS011;2593;52.466;13.436;2023-03-20T09:29:40;25.00;;;13.73;;
5149;SDS011;2593;52.466;13.436;2023-03-20T09:32:09;34.50;;;14.30;;
5149;SDS011;2593;52.466;13.436;2023-03-20T09:34:39;28.40;;;14.73;;
5149;SDS011;2593;52.466;13.436;2023-03-20T09:37:05;25.53;;;13.60;;
5149;SDS011;2593;52.466;13.436;2023-03-20T09:39:31;26.80;;;13.50;;
5149;SDS011;2593;52.466;13.436;2023-03-20T09:42:04;29.87;;;14.20;;
5149;SDS011;2593;52.466;13.436;2023-03-20T09:44:45;26.00;;;14.10;;
5149;SDS011;2593;52.466;13.436;2023-03-20T09:48:08;29.83;;;14.00;;
5149;SDS011;2593;52.466;13.436;2023-03-20T09:53:24;25.00;;;13.27;;
5149;SDS011;2593;52.466;13.436;2023-03-20T09:55:57;32.93;;;13.63;;
5149;SDS011;2593;52.466;13.436;2023-03-20T09:58:29;28.10;;;12.00;;
5149;SDS011;2593;52.466;13.436;2023-03-20T10:00:58;25.30;;;12.30;;
5149;SDS011;2593;52.466;13.436;2023-03-20T10:03:27;29.53;;;13.37;;
5149;SDS011;2593;52.466;13.436;2023-03-20T10:06:03;36.53;;;16.90;;
5149;SDS011;2593;52.466;13.436;2023-03-20T10:08:33;25.40;;;14.43;;
5149;SDS011;2593;52.466;13.436;2023-03-20T10:16:33;27.37;;;13.37;;
5149;SDS011;2593;52.466;13.436;2023-03-20T10:19:23;27.53;;;13.70;;
5149;SDS011;2593;52.466;13.436;2023-03-20T10:21:58;25.63;;;13.60;;
5149;SDS011;2593;52.466;13.436;2023-03-20T10:27:55;29.27;;;13.80;;
5149;SDS011;2593;52.466;13.436;2023-03-20T10:33:47;29.93;;;14.77;;
5149;SDS011;2593;52.466;13.436;2023-03-20T10:38:57;23.93;;;12.27;;
5149;SDS011;2593;52.466;13.436;2023-03-20T10:41:29;28.43;;;12.53;;
5149;SDS011;2593;52.466;13.436;2023-03-20T10:43:59;23.77;;;12.47;;
5149;SDS011;2593;52.466;13.436;2023-03-20T10:46:27;22.93;;;11.53;;
5149;SDS011;2593;52.466;13.436;2023-03-20T10:51:38;29.47;;;11.60;;
5149;SDS011;2593;52.466;13.436;2023-03-20T10:56:45;21.23;;;11.53;;
5149;SDS011;2593;52.466;13.436;2023-03-20T10:59:21;25.30;;;11.77;;
5149;SDS011;2593;52.466;13.436;2023-03-20T11:01:52;21.00;;;10.27;;
5149;SDS011;2593;52.466;13.436;2023-03-20T11:04:18;18.77;;;9.83;;
5149;SDS011;2593;52.466;13.436;2023-03-20T11:06:46;20.90;;;9.90;;
5149;SDS011;2593;52.466;13.436;2023-03-20T11:09:20;18.90;;;9.77;;
5149;SDS011;2593;52.466;13.436;2023-03-20T11:11:50;18.70;;;9.00;;
5149;SDS011;2593;52.466;13.436;2023-03-20T11:14:21;22.17;;;11.13;;
5149;SDS011;2593;52.466;13.436;2023-03-20T11:16:55;18.10;;;10.67;;
5149;SDS011;2593;52.466;13.436;2023-03-20T11:19:24;19.53;;;9.40;;
5149;SDS011;2593;52.466;13.436;2023-03-20T11:21:54;15.93;;;9.33;;
5149;SDS011;2593;52.466;13.436;2023-03-20T11:26:53;23.73;;;9.93;;
5149;SDS011;2593;52.466;13.436;2023-03-20T11:29:29;19.80;;;9.37;;
5149;SDS011;2593;52.466;13.436;2023-03-20T11:32:02;18.50;;;9.03;;
5149;SDS011;2593;52.466;13.436;2023-03-20T11:34:49;13.77;;;8.20;;
5149;SDS011;2593;52.466;13.436;2023-03-20T11:40:15;15.90;;;8.53;;
5149;SDS011;2593;52.466;13.436;2023-03-20T11:42:50;28.33;;;13.00;;
5149;SDS011;2593;52.466;13.436;2023-03-20T11:45:26;34.50;;;16.77;;
5149;SDS011;2593;52.466;13.436;2023-03-20T11:48:00;22.30;;;11.07;;
5149;SDS011;2593;52.466;13.436;2023-03-20T11:50:36;22.03;;;10.13;;
5149;SDS011;2593;52.466;13.436;2023-03-20T11:53:23;13.40;;;8.53;;
5149;SDS011;2593;52.466;13.436;2023-03-20T11:55:59;19.77;;;9.93;;
5149;SDS011;2593;52.466;13.436;2023-03-20T11:58:29;19.00;;;10.53;;
5149;SDS011;2593;52.466;13.436;2023-03-20T12:00:55;14.77;;;8.93;;
5149;SDS011;2593;52.466;13.436;2023-03-20T12:06:07;16.73;;;9.00;;
5149;SDS011;2593;52.466;13.436;2023-03-20T12:08:38;19.73;;;8.83;;
5149;SDS011;2593;52.466;13.436;2023-03-20T12:11:07;24.17;;;9.47;;
5149;SDS011;2593;52.466;13.436;2023-03-20T12:13:45;23.10;;;9.03;;
5149;SDS011;2593;52.466;13.436;2023-03-20T12:16:14;15.40;;;8.60;;
5149;SDS011;2593;52.466;13.436;2023-03-20T12:18:51;15.73;;;8.50;;
5149;SDS011;2593;52.466;13.436;2023-03-20T12:26:55;24.90;;;12.70;;
5149;SDS011;2593;52.466;13.436;2023-03-20T12:29:39;17.63;;;10.33;;
5149;SDS011;2593;52.466;13.436;2023-03-20T12:35:26;16.80;;;9.33;;
5149;SDS011;2593;52.466;13.436;2023-03-20T12:37:54;20.80;;;10.70;;
5149;SDS011;2593;52.466;13.436;2023-03-20T12:40:21;16.80;;;10.60;;
5149;SDS011;2593;52.466;13.436;2023-03-20T12:43:02;17.50;;;7.97;;
5149;SDS011;2593;52.466;13.436;2023-03-20T12:45:37;19.43;;;9.97;;
5149;SDS011;2593;52.466;13.436;2023-03-20T12:48:10;21.33;;;10.40;;
5149;SDS011;2593;52.466;13.436;2023-03-20T12:50:48;29.10;;;13.80;;
5149;SDS011;2593;52.466;13.436;2023-03-20T13:01:03;24.23;;;11.53;;
5149;SDS011;2593;52.466;13.436;2023-03-20T13:14:12;21.17;;;10.80;;
5149;SDS011;2593;52.466;13.436;2023-03-20T13:22:07;25.23;;;12.50;;
5149;SDS011;2593;52.466;13.436;2023-03-20T13:24:49;23.40;;;10.90;;
5149;SDS011;2593;52.466;13.436;2023-03-20T13:35:45;21.03;;;10.43;;
5149;SDS011;2593;52.466;13.436;2023-03-20T13:38:22;19.43;;;10.80;;
5149;SDS011;2593;52.466;13.436;2023-03-20T13:41:00;23.17;;;11.70;;
5149;SDS011;2593;52.466;13.436;2023-03-20T13:43:48;46.23;;;18.87;;
5149;SDS011;2593;52.466;13.436;2023-03-20T13:46:25;48.23;;;20.83;;
5149;SDS011;2593;52.466;13.436;2023-03-20T13:48:57;31.13;;;13.90;;
5149;SDS011;2593;52.466;13.436;2023-03-20T13:56:32;24.50;;;12.10;;
5149;SDS011;2593;52.466;13.436;2023-03-20T14:05:00;33.43;;;11.90;;
5149;SDS011;2593;52.466;13.436;2023-03-20T14:07:42;18.07;;;10.67;;
5149;SDS011;2593;52.466;13.436;2023-03-20T14:12:47;24.73;;;12.17;;
5149;SDS011;2593;52.466;13.436;2023-03-20T14:15:14;25.93;;;12.63;;
5149;SDS011;2593;52.466;13.436;2023-03-20T14:17:42;21.17;;;12.23;;
5149;SDS011;2593;52.466;13.436;2023-03-20T14:20:12;19.70;;;11.97;;
5149;SDS011;2593;52.466;13.436;2023-03-20T14:22:56;23.67;;;12.80;;
5149;SDS011;2593;52.466;13.436;2023-03-20T14:25:22;28.20;;;13.30;;
5149;SDS011;2593;52.466;13.436;2023-03-20T14:30:43;28.23;;;13.40;;
5149;SDS011;2593;52.466;13.436;2023-03-20T14:36:09;21.53;;;13.50;;
5149;SDS011;2593;52.466;13.436;2023-03-20T14:46:51;43.70;;;19.67;;
5149;SDS011;2593;52.466;13.436;2023-03-20T14:57:42;38.10;;;16.17;;
5149;SDS011;2593;52.466;13.436;2023-03-20T15:00:18;31.93;;;17.03;;
5149;SDS011;2593;52.466;13.436;2023-03-20T15:02:54;31.63;;;16.43;;
5149;SDS011;2593;52.466;13.436;2023-03-20T15:05:34;33.93;;;15.77;;
5149;SDS011;2593;52.466;13.436;2023-03-20T15:08:06;32.87;;;17.30;;
5149;SDS011;2593;52.466;13.436;2023-03-20T15:10:34;38.17;;;18.33;;
5149;SDS011;2593;52.466;13.436;2023-03-20T15:13:03;30.90;;;16.07;;
5149;SDS011;2593;52.466;13.436;2023-03-20T15:15:31;32.30;;;17.17;;
5149;SDS011;2593;52.466;13.436;2023-03-20T15:18:05;31.10;;;15.20;;
5149;SDS011;2593;52.466;13.436;2023-03-20T15:20:36;24.97;;;14.03;;
5149;SDS011;2593;52.466;13.436;2023-03-20T15:23:02;25.17;;;14.73;;
5149;SDS011;2593;52.466;13.436;2023-03-20T15:25:31;31.83;;;16.73;;
5149;SDS011;2593;52.466;13.436;2023-03-20T15:28:04;43.77;;;20.00;;
5149;SDS011;2593;52.466;13.436;2023-03-20T15:30:31;46.43;;;20.50;;
5149;SDS011;2593;52.466;13.436;2023-03-20T15:33:00;40.17;;;19.80;;
5149;SDS011;2593;52.466;13.436;2023-03-20T15:35:26;45.90;;;23.90;;
5149;SDS011;2593;52.466;13.436;2023-03-20T15:37:51;35.57;;;20.63;;
5149;SDS011;2593;52.466;13.436;2023-03-20T15:45:44;29.47;;;14.33;;
5149;SDS011;2593;52.466;13.436;2023-03-20T15:48:13;27.70;;;13.57;;
5149;SDS011;2593;52.466;13.436;2023-03-20T15:50:41;29.63;;;14.13;;
5149;SDS011;2593;52.466;13.436;2023-03-20T15:53:14;27.83;;;14.43;;
5149;SDS011;2593;52.466;13.436;2023-03-20T15:55:46;28.53;;;14.30;;
5149;SDS011;2593;52.466;13.436;2023-03-20T15:58:17;32.73;;;15.67;;
5149;SDS011;2593;52.466;13.436;2023-03-20T16:00:43;30.63;;;15.93;;
5149;SDS011;2593;52.466;13.436;2023-03-20T16:03:15;33.00;;;15.93;;
5149;SDS011;2593;52.466;13.436;2023-03-20T16:05:44;31.07;;;16.10;;
5149;SDS011;2593;52.466;13.436;2023-03-20T16:10:40;32.20;;;17.07;;
5149;SDS011;2593;52.466;13.436;2023-03-20T16:13:09;39.57;;;19.70;;
5149;SDS011;2593;52.466;13.436;2023-03-20T16:15:41;37.90;;;19.27;;
5149;SDS011;2593;52.466;13.436;2023-03-20T16:18:07;39.43;;;19.10;;
5149;SDS011;2593;52.466;13.436;2023-03-20T16:20:36;31.23;;;16.10;;
5149;SDS011;2593;52.466;13.436;2023-03-20T16:23:06;27.40;;;15.37;;
5149;SDS011;2593;52.466;13.436;2023-03-20T16:25:33;34.40;;;16.83;;
5149;SDS011;2593;52.466;13.436;2023-03-20T16:28:00;30.70;;;15.97;;
5149;SDS011;2593;52.466;13.436;2023-03-20T16:30:30;37.73;;;15.70;;
5149;SDS011;2593;52.466;13.436;2023-03-20T16:32:58;31.10;;;16.70;;
5149;SDS011;2593;52.466;13.436;2023-03-20T16:35:26;29.00;;;15.90;;
5149;SDS011;2593;52.466;13.436;2023-03-20T16:37:57;42.90;;;22.33;;
5149;SDS011;2593;52.466;13.436;2023-03-20T16:43:15;48.87;;;22.83;;
5149;SDS011;2593;52.466;13.436;2023-03-20T16:45:43;35.57;;;17.33;;
5149;SDS011;2593;52.466;13.436;2023-03-20T16:50:37;37.87;;;18.27;;
5149;SDS011;2593;52.466;13.436;2023-03-20T16:53:15;39.67;;;18.97;;
5149;SDS011;2593;52.466;13.436;2023-03-20T16:55:47;30.10;;;16.27;;
5149;SDS011;2593;52.466;13.436;2023-03-20T16:58:19;28.17;;;15.67;;
5149;SDS011;2593;52.466;13.436;2023-03-20T17:03:24;26.17;;;14.63;;
5149;SDS011;2593;52.466;13.436;2023-03-20T17:06:03;28.87;;;14.70;;
5149;SDS011;2593;52.466;13.436;2023-03-20T17:08:51;29.30;;;15.37;;
5149;SDS011;2593;52.466;13.436;2023-03-20T17:13:59;138.23;;;48.43;;
5149;SDS011;2593;52.466;13.436;2023-03-20T17:16:26;109.80;;;42.43;;
5149;SDS011;2593;52.466;13.436;2023-03-20T17:19:03;85.23;;;34.93;;
5149;SDS011;2593;52.466;13.436;2023-03-20T17:21:31;52.50;;;23.70;;
5149;SDS011;2593;52.466;13.436;2023-03-20T17:23:57;34.90;;;18.10;;
5149;SDS011;2593;52.466;13.436;2023-03-20T17:26:22;29.50;;;15.67;;
5149;SDS011;2593;52.466;13.436;2023-03-20T17:28:48;27.20;;;14.30;;
5149;SDS011;2593;52.466;13.436;2023-03-20T17:31:15;27.73;;;15.10;;
5149;SDS011;2593;52.466;13.436;2023-03-20T17:33:43;30.80;;;16.10;;
5149;SDS011;2593;52.466;13.436;2023-03-20T17:36:13;35.33;;;19.17;;
5149;SDS011;2593;52.466;13.436;2023-03-20T17:38:42;47.77;;;21.77;;
5149;SDS011;2593;52.466;13.436;2023-03-20T17:41:12;40.80;;;21.87;;
5149;SDS011;2593;52.466;13.436;2023-03-20T17:43:39;82.43;;;35.70;;
5149;SDS011;2593;52.466;13.436;2023-03-20T17:46:08;46.53;;;22.63;;